createdAt,value
2023-02-19T00:02:25.697Z,5.61
2023-02-19T00:05:32.136Z,5.60
2023-02-19T00:08:39.125Z,5.53
2023-02-19T00:11:44.320Z,5.52
2023-02-19T00:14:53.122Z,5.48
2023-02-19T00:18:01.310Z,5.48
2023-02-19T00:21:07.994Z,5.48
2023-02-19T00:24:16.181Z,5.49
2023-02-19T00:27:21.032Z,5.51
2023-02-19T00:30:26.653Z,5.55
2023-02-19T00:33:32.652Z,5.55
2023-02-19T00:36:38.779Z,5.51
2023-02-19T00:39:54.039Z,5.46
2023-02-19T00:42:59.772Z,5.45
2023-02-19T00:46:03.052Z,5.46
2023-02-19T00:49:10.273Z,5.45
2023-02-19T00:52:23.454Z,5.47
2023-02-19T00:55:33.465Z,5.54
2023-02-19T00:58:43.374Z,5.54
2023-02-19T01:01:49.733Z,5.54
2023-02-19T01:04:54.081Z,5.57
2023-02-19T01:08:00.009Z,5.59
2023-02-19T01:11:04.632Z,5.60
2023-02-19T01:14:10.912Z,5.59
2023-02-19T01:17:17.177Z,5.59
2023-02-19T01:20:20.521Z,5.55
2023-02-19T01:23:23.650Z,5.56
2023-02-19T01:26:32.360Z,5.58
2023-02-19T01:29:38.091Z,5.56
2023-02-19T01:32:41.966Z,5.55
2023-02-19T01:35:45.089Z,5.55
2023-02-19T01:38:49.756Z,5.54
2023-02-19T01:41:52.876Z,5.51
2023-02-19T01:45:27.288Z,5.47
2023-02-19T01:48:37.443Z,5.38
2023-02-19T01:51:49.429Z,5.37
2023-02-19T01:54:58.617Z,5.29
2023-02-19T01:58:06.776Z,5.29
2023-02-19T02:01:11.964Z,5.31
2023-02-19T02:04:20.059Z,5.31
2023-02-19T02:07:41.774Z,5.27
2023-02-19T02:10:45.774Z,5.29
2023-02-19T02:13:56.101Z,5.27
2023-02-19T02:17:11.624Z,5.26
2023-02-19T02:20:35.860Z,5.27
2023-02-19T02:23:57.634Z,5.23
2023-02-19T02:27:22.796Z,5.13
2023-02-19T02:30:36.672Z,5.06
2023-02-19T02:33:45.860Z,5.09
2023-02-19T02:36:55.709Z,5.07
2023-02-19T02:40:00.990Z,5.13
2023-02-19T02:43:06.641Z,5.11
2023-02-19T02:46:18.182Z,5.11
2023-02-19T02:49:25.205Z,4.96
2023-02-19T02:52:42.944Z,4.83
2023-02-19T02:55:52.564Z,4.85
2023-02-19T02:58:58.450Z,4.80
2023-02-19T03:02:14.364Z,4.74
2023-02-19T03:05:39.613Z,4.67
2023-02-19T03:08:54.769Z,4.70
2023-02-19T03:12:27.751Z,4.66
2023-02-19T03:15:57.674Z,4.59
2023-02-19T03:19:21.323Z,4.48
2023-02-19T03:22:34.431Z,4.43
2023-02-19T03:25:58.647Z,4.29
2023-02-19T03:29:25.774Z,4.27
2023-02-19T03:32:44.129Z,4.23
2023-02-19T03:35:56.964Z,4.17
2023-02-19T03:39:05.673Z,4.08
2023-02-19T03:42:31.578Z,4.01
2023-02-19T03:46:01.538Z,3.95
2023-02-19T03:49:15.641Z,3.80
2023-02-19T03:52:33.035Z,3.74
2023-02-19T03:55:47.061Z,3.58
2023-02-19T03:58:57.312Z,3.53
2023-02-19T04:02:09.642Z,3.42
2023-02-19T04:05:17.935Z,3.37
2023-02-19T04:08:25.371Z,3.36
2023-02-19T04:11:37.127Z,3.33
2023-02-19T04:14:48.691Z,3.29
2023-02-19T04:18:01.236Z,3.32
2023-02-19T04:21:09.364Z,3.28
2023-02-19T04:24:31.235Z,3.29
2023-02-19T04:27:38.706Z,3.23
2023-02-19T04:30:42.274Z,3.20
2023-02-19T04:33:47.882Z,3.20
2023-02-19T04:36:51.169Z,3.15
2023-02-19T04:39:57.385Z,3.17
2023-02-19T04:43:04.430Z,3.20
2023-02-19T04:46:10.786Z,3.17
2023-02-19T04:49:14.390Z,3.07
2023-02-19T04:52:20.292Z,3.07
2023-02-19T04:55:27.581Z,3.03
2023-02-19T04:58:33.110Z,3.03
2023-02-19T05:01:40.495Z,2.98
2023-02-19T05:04:44.507Z,2.96
2023-02-19T05:07:47.808Z,2.96
2023-02-19T05:11:05.624Z,2.90
2023-02-19T05:14:08.939Z,2.78
2023-02-19T05:17:12.696Z,2.77
2023-02-19T05:20:16.247Z,2.80
2023-02-19T05:23:20.803Z,2.74
2023-02-19T05:26:28.617Z,2.76
2023-02-19T05:29:34.395Z,2.72
2023-02-19T05:32:41.008Z,2.76
2023-02-19T05:35:48.090Z,2.78
2023-02-19T05:38:59.695Z,2.83
2023-02-19T05:42:08.241Z,2.88
2023-02-19T05:45:14.144Z,2.94
2023-02-19T05:48:20.368Z,2.93
2023-02-19T05:51:28.893Z,2.86
2023-02-19T05:54:35.044Z,2.87
2023-02-19T05:57:46.650Z,2.87
2023-02-19T06:00:50.356Z,2.83
2023-02-19T06:03:57.581Z,2.87
2023-02-19T06:07:01.512Z,2.86
2023-02-19T06:10:07.468Z,2.88
2023-02-19T06:13:13.020Z,2.90
2023-02-19T06:16:27.040Z,2.89
2023-02-19T06:19:47.192Z,2.94
2023-02-19T06:23:03.245Z,2.98
2023-02-19T06:26:24.297Z,2.92
2023-02-19T06:29:38.268Z,2.96
2023-02-19T06:32:54.973Z,2.97
2023-02-19T06:36:06.935Z,3.03
2023-02-19T06:39:21.637Z,3.05
2023-02-19T06:42:32.087Z,3.09
2023-02-19T06:45:48.390Z,3.00
2023-02-19T06:48:57.361Z,2.95
2023-02-19T06:52:48.450Z,3.05
2023-02-19T06:56:01.203Z,3.04
2023-02-19T06:59:10.643Z,2.97
2023-02-19T07:02:15.364Z,3.00
2023-02-19T07:05:21.496Z,3.04
2023-02-19T07:08:42.296Z,3.03
2023-02-19T07:11:48.512Z,3.10
2023-02-19T07:14:51.995Z,3.15
2023-02-19T07:17:59.913Z,3.23
2023-02-19T07:21:04.925Z,3.20
2023-02-19T07:24:11.888Z,3.16
2023-02-19T07:27:27.066Z,3.24
2023-02-19T07:30:30.517Z,3.28
2023-02-19T07:33:37.293Z,3.23
2023-02-19T07:36:43.615Z,3.34
2023-02-19T07:39:47.130Z,3.43
2023-02-19T07:42:53.572Z,3.41
2023-02-19T07:45:58.215Z,3.40
2023-02-19T07:49:02.630Z,3.46
2023-02-19T07:52:06.092Z,3.38
2023-02-19T07:55:09.322Z,3.35
2023-02-19T07:58:12.467Z,3.40
2023-02-19T08:01:18.021Z,3.48
2023-02-19T08:04:21.630Z,3.51
2023-02-19T08:07:25.069Z,3.48
2023-02-19T08:10:50.962Z,3.53
2023-02-19T08:13:57.462Z,3.53
2023-02-19T08:17:00.744Z,3.55
2023-02-19T08:20:08.496Z,3.58
2023-02-19T08:23:31.011Z,3.65
2023-02-19T08:26:43.413Z,3.59
2023-02-19T08:29:46.766Z,3.60
2023-02-19T08:32:50.451Z,3.65
2023-02-19T08:36:00.214Z,3.69
2023-02-19T08:39:05.084Z,3.69
2023-02-19T08:43:06.392Z,3.73
2023-02-19T08:46:14.859Z,3.82
2023-02-19T08:49:26.960Z,3.90
2023-02-19T08:52:47.383Z,3.92
2023-02-19T08:55:51.291Z,3.98
2023-02-19T08:59:03.751Z,4.06
2023-02-19T09:02:07.900Z,4.14
2023-02-19T09:05:12.659Z,4.23
2023-02-19T09:08:19.602Z,4.22
2023-02-19T09:11:27.306Z,4.28
2023-02-19T09:14:35.544Z,4.31
2023-02-19T09:17:38.988Z,4.36
2023-02-19T09:20:42.314Z,4.38
2023-02-19T09:23:55.295Z,4.50
2023-02-19T09:27:01.382Z,4.44
2023-02-19T09:30:13.407Z,4.51
2023-02-19T09:33:16.848Z,4.50
2023-02-19T09:36:20.860Z,4.66
2023-02-19T09:39:29.768Z,4.81
2023-02-19T09:42:36.336Z,4.85
2023-02-19T09:45:43.919Z,4.73
2023-02-19T09:48:56.133Z,4.75
2023-02-19T09:52:28.177Z,4.76
2023-02-19T09:55:38.064Z,4.92
2023-02-19T09:58:49.905Z,5.00
2023-02-19T10:02:01.105Z,4.86
2023-02-19T10:05:11.249Z,5.09
2023-02-19T10:08:19.854Z,5.16
2023-02-19T10:11:42.698Z,5.23
2023-02-19T10:14:52.300Z,5.19
2023-02-19T10:17:58.589Z,5.19
2023-02-19T10:21:02.084Z,5.17
2023-02-19T10:24:07.827Z,5.31
2023-02-19T10:27:15.487Z,5.28
2023-02-19T10:30:24.064Z,5.48
2023-02-19T10:33:31.133Z,5.36
2023-02-19T10:36:41.521Z,5.41
2023-02-19T10:39:47.656Z,5.55
2023-02-19T10:42:55.632Z,5.93
2023-02-19T10:45:59.960Z,5.90
2023-02-19T10:49:08.150Z,5.70
2023-02-19T10:52:18.533Z,5.86
2023-02-19T10:55:45.915Z,5.81
2023-02-19T10:58:55.462Z,5.95
2023-02-19T11:02:00.691Z,6.08
2023-02-19T11:05:16.601Z,6.17
2023-02-19T11:08:23.534Z,6.17
2023-02-19T11:11:36.789Z,5.96
2023-02-19T11:14:46.979Z,5.68
2023-02-19T11:17:57.756Z,5.77
2023-02-19T11:21:03.929Z,5.92
2023-02-19T11:24:07.615Z,5.99
2023-02-19T11:27:20.415Z,5.88
2023-02-19T11:30:55.667Z,5.82
2023-02-19T11:35:05.645Z,5.76
2023-02-19T11:38:13.071Z,5.77
2023-02-19T11:41:25.465Z,5.89
2023-02-19T11:44:44.406Z,6.13
2023-02-19T11:48:34.393Z,6.46
2023-02-19T11:52:13.724Z,6.55
2023-02-19T11:55:26.722Z,7.05
2023-02-19T11:59:05.012Z,7.49
2023-02-19T12:02:44.473Z,7.27
2023-02-19T12:06:16.547Z,7.13
2023-02-19T12:09:35.421Z,7.19
2023-02-19T12:13:00.505Z,7.42
2023-02-19T12:16:22.340Z,7.42
2023-02-19T12:19:46.195Z,7.58
2023-02-19T12:23:14.885Z,7.14
2023-02-19T12:26:27.311Z,7.49
2023-02-19T12:30:17.202Z,7.77
2023-02-19T12:34:07.659Z,7.57
2023-02-19T12:37:37.773Z,7.81
2023-02-19T12:41:45.784Z,8.42
2023-02-19T12:44:53.939Z,8.42
2023-02-19T12:48:07.466Z,8.72
2023-02-19T12:51:20.475Z,8.31
2023-02-19T12:54:28.501Z,7.74
2023-02-19T12:57:39.443Z,7.77
2023-02-19T13:00:50.387Z,7.75
2023-02-19T13:04:17.872Z,7.50
2023-02-19T13:07:30.641Z,7.76
2023-02-19T13:10:44.093Z,7.85
2023-02-19T13:13:53.651Z,7.60
2023-02-19T13:17:14.176Z,7.14
2023-02-19T13:20:29.327Z,6.87
2023-02-19T13:23:53.387Z,6.81
2023-02-19T13:27:22.814Z,7.07
2023-02-19T13:30:45.005Z,6.76
2023-02-19T13:34:02.851Z,6.62
2023-02-19T13:37:06.777Z,6.67
2023-02-19T13:40:34.365Z,6.52
2023-02-19T13:43:38.963Z,6.45
2023-02-19T13:46:49.422Z,6.47
2023-02-19T13:49:52.551Z,6.41
2023-02-19T13:52:58.209Z,6.69
2023-02-19T13:56:02.813Z,7.12
2023-02-19T13:59:35.580Z,7.38
2023-02-19T14:02:40.092Z,7.30
2023-02-19T14:06:02.637Z,7.17
2023-02-19T14:09:45.447Z,7.01
2023-02-19T14:12:48.695Z,6.69
2023-02-19T14:15:54.922Z,6.64
2023-02-19T14:19:02.070Z,6.55
2023-02-19T14:22:52.431Z,6.61
2023-02-19T14:26:01.238Z,6.56
2023-02-19T14:29:14.154Z,6.58
2023-02-19T14:32:21.129Z,6.50
2023-02-19T14:35:29.769Z,6.74
2023-02-19T14:38:56.667Z,6.73
2023-02-19T14:42:03.366Z,6.58
2023-02-19T14:45:09.226Z,6.60
2023-02-19T14:48:22.523Z,6.56
2023-02-19T14:51:33.701Z,6.65
2023-02-19T14:54:46.189Z,6.82
2023-02-19T14:57:54.542Z,6.92
2023-02-19T15:01:02.799Z,6.78
2023-02-19T15:04:08.843Z,6.66
2023-02-19T15:38:02.669Z,6.04
2023-02-19T15:41:29.508Z,6.00
2023-02-19T15:45:07.394Z,5.90
2023-02-19T15:53:41.499Z,5.73
2023-02-19T15:57:54.924Z,5.75
2023-02-19T16:02:14.954Z,5.67
2023-02-19T16:05:28.845Z,5.65
2023-02-19T16:08:35.233Z,5.59
2023-02-19T16:11:40.828Z,5.50
2023-02-19T16:14:46.527Z,5.53
2023-02-19T16:17:51.044Z,5.50
2023-02-19T16:20:54.068Z,5.44
2023-02-19T16:24:12.345Z,5.38
2023-02-19T16:27:29.676Z,5.36
2023-02-19T16:30:38.974Z,5.34
2023-02-19T16:33:44.141Z,5.31
2023-02-19T16:36:49.341Z,5.26
2023-02-19T16:40:40.823Z,5.22
2023-02-19T16:43:46.769Z,5.13
2023-02-19T16:46:52.602Z,5.12
2023-02-19T16:49:56.522Z,5.09
2023-02-19T16:53:02.517Z,4.94
2023-02-19T16:56:09.570Z,4.87
2023-02-19T16:59:12.635Z,4.87
2023-02-19T17:02:22.520Z,4.89
2023-02-19T17:05:28.939Z,4.89
2023-02-19T17:08:37.045Z,4.86
2023-02-19T17:11:44.290Z,4.83
2023-02-19T17:14:50.206Z,4.87
2023-02-19T17:17:53.500Z,4.93
2023-02-19T17:21:00.998Z,4.84
2023-02-19T17:24:04.877Z,4.73
2023-02-19T17:27:17.105Z,4.76
2023-02-19T17:30:26.194Z,4.81
2023-02-19T17:33:29.366Z,4.82
2023-02-19T17:36:33.691Z,4.82
2023-02-19T17:39:48.369Z,4.75
2023-02-19T17:42:53.466Z,4.73
2023-02-19T17:45:58.564Z,4.76
2023-02-19T17:49:01.691Z,4.79
2023-02-19T17:52:05.525Z,4.84
2023-02-19T17:55:09.803Z,4.87
2023-02-19T17:58:15.003Z,4.86
2023-02-19T18:01:18.509Z,4.88
2023-02-19T18:04:23.673Z,4.78
2023-02-19T18:07:29.512Z,4.68
2023-02-19T18:10:41.616Z,4.69
2023-02-19T18:13:49.321Z,4.47
2023-02-19T18:16:57.252Z,4.38
2023-02-19T18:20:00.387Z,4.42
2023-02-19T18:23:04.704Z,4.40
2023-02-19T18:26:10.740Z,4.48
2023-02-19T18:29:18.494Z,4.36
2023-02-19T18:32:26.022Z,4.35
2023-02-19T18:35:34.798Z,4.29
2023-02-19T18:38:44.618Z,4.27
2023-02-19T18:41:49.278Z,4.31
2023-02-19T18:44:57.686Z,4.18
2023-02-19T18:48:02.000Z,4.21
2023-02-19T18:51:15.180Z,4.16
2023-02-19T18:54:18.726Z,4.16
2023-02-19T18:57:24.708Z,4.07
2023-02-19T19:04:15.626Z,3.97
2023-02-19T19:07:25.997Z,3.93
2023-02-19T19:10:33.332Z,3.95
2023-02-19T19:13:36.547Z,4.03
2023-02-19T19:16:42.232Z,4.01
2023-02-19T19:19:45.698Z,4.02
2023-02-19T19:22:53.160Z,3.96
2023-02-19T19:25:56.263Z,3.84
2023-02-19T19:28:59.489Z,3.76
2023-02-19T19:32:08.116Z,3.78
2023-02-19T19:35:13.637Z,3.79
2023-02-19T19:38:16.942Z,3.70
2023-02-19T19:41:22.213Z,3.68
2023-02-19T19:44:25.269Z,3.63
2023-02-19T19:47:35.123Z,3.67
2023-02-19T19:51:03.021Z,3.65
2023-02-19T19:54:08.697Z,3.61
2023-02-19T19:57:12.492Z,3.60
2023-02-19T20:00:20.978Z,3.64
2023-02-19T20:03:33.740Z,3.64
2023-02-19T20:06:37.044Z,3.66
2023-02-19T20:09:43.571Z,3.65
2023-02-19T20:12:50.762Z,3.60
2023-02-19T20:15:54.037Z,3.62
2023-02-19T20:18:58.447Z,3.63
2023-02-19T20:22:01.483Z,3.60
2023-02-19T20:25:04.645Z,3.57
2023-02-19T20:28:07.706Z,3.66
2023-02-19T20:31:13.502Z,3.75
2023-02-19T20:34:19.039Z,3.79
2023-02-19T20:37:22.243Z,3.67
2023-02-19T20:40:27.653Z,3.61
2023-02-19T20:43:30.652Z,3.59
2023-02-19T20:46:33.730Z,3.63
2023-02-19T20:49:39.728Z,3.50
2023-02-19T20:52:42.839Z,3.52
2023-02-19T20:55:46.184Z,3.54
2023-02-19T20:58:49.315Z,3.45
2023-02-19T21:02:05.939Z,3.51
2023-02-19T21:05:33.773Z,3.46
2023-02-19T21:09:08.321Z,3.43
2023-02-19T21:12:31.108Z,3.36
2023-02-19T21:16:16.633Z,3.36
2023-02-19T21:19:21.780Z,3.29
2023-02-19T21:22:27.204Z,3.33
2023-02-19T21:25:33.366Z,3.37
2023-02-19T21:28:49.434Z,3.26
2023-02-19T21:32:00.304Z,3.21
2023-02-19T21:35:05.883Z,3.14
2023-02-19T21:38:11.500Z,3.07
2023-02-19T21:41:14.493Z,3.00
2023-02-19T21:44:18.261Z,2.97
2023-02-19T21:47:21.339Z,3.00
2023-02-19T21:50:24.467Z,3.06
2023-02-19T21:53:29.817Z,3.04
2023-02-19T21:56:36.398Z,3.08
2023-02-19T21:59:41.177Z,3.11
2023-02-19T22:02:44.194Z,3.12
2023-02-19T22:05:49.982Z,3.11
2023-02-19T22:08:54.593Z,3.13
2023-02-19T22:11:57.857Z,3.15
2023-02-19T22:15:01.208Z,3.22
2023-02-19T22:18:04.829Z,3.24
2023-02-19T22:21:08.355Z,3.22
2023-02-19T22:24:18.334Z,3.21
2023-02-19T22:27:21.474Z,3.20
2023-02-19T22:30:24.541Z,3.12
2023-02-19T22:33:27.524Z,3.11
2023-02-19T22:36:36.872Z,3.08
2023-02-19T22:39:41.217Z,2.94
2023-02-19T22:42:44.341Z,2.89
2023-02-19T22:45:47.796Z,2.90
2023-02-19T22:48:51.511Z,2.94
2023-02-19T22:52:01.200Z,2.86
2023-02-19T22:55:06.217Z,2.88
2023-02-19T22:58:09.512Z,2.84
2023-02-19T23:01:14.146Z,2.82
2023-02-19T23:04:17.921Z,2.76
2023-02-19T23:07:20.951Z,2.76
2023-02-19T23:10:25.424Z,2.72
2023-02-19T23:13:28.545Z,2.72
2023-02-19T23:16:35.667Z,2.64
2023-02-19T23:19:41.686Z,2.64
2023-02-19T23:22:44.789Z,2.58
2023-02-19T23:25:49.160Z,2.61
2023-02-19T23:28:55.154Z,2.59
2023-02-19T23:32:00.209Z,2.58
2023-02-19T23:35:03.532Z,2.53
2023-02-19T23:38:09.245Z,2.46
2023-02-19T23:41:17.644Z,2.44
2023-02-19T23:44:23.353Z,2.42
2023-02-19T23:47:26.596Z,2.30
2023-02-19T23:50:32.252Z,2.37
2023-02-19T23:53:40.961Z,2.34
2023-02-19T23:56:45.350Z,2.32
2023-02-19T23:59:49.081Z,2.33
